createdAt,value
2022-11-25T00:01:31.724Z,4.15
2022-11-25T00:03:59.521Z,6.25
2022-11-25T00:06:29.485Z,3.83
2022-11-25T00:09:08.544Z,3.72
2022-11-25T00:11:36.924Z,6.28
2022-11-25T00:14:04.569Z,4.82
2022-11-25T00:16:31.723Z,4.38
2022-11-25T00:18:59.229Z,3.83
2022-11-25T00:21:29.337Z,5.47
2022-11-25T00:24:00.958Z,4.57
2022-11-25T00:26:29.483Z,3.80
2022-11-25T00:28:59.878Z,5.90
2022-11-25T00:31:32.794Z,4.80
2022-11-25T00:33:59.766Z,4.35
2022-11-25T00:36:32.349Z,5.03
2022-11-25T00:39:03.533Z,6.05
2022-11-25T00:41:50.102Z,4.93
2022-11-25T00:44:38.406Z,7.43
2022-11-25T00:47:12.417Z,5.25
2022-11-25T00:49:41.391Z,4.50
2022-11-25T00:52:09.593Z,3.42
2022-11-25T00:54:36.808Z,4.90
2022-11-25T00:57:04.147Z,4.75
2022-11-25T00:59:31.178Z,5.47
2022-11-25T01:02:00.209Z,7.35
2022-11-25T01:04:27.249Z,4.45
2022-11-25T01:06:56.816Z,5.57
2022-11-25T01:09:24.000Z,5.32
2022-11-25T01:11:51.651Z,5.38
2022-11-25T01:14:19.534Z,7.50
2022-11-25T01:16:48.076Z,5.38
2022-11-25T01:19:16.359Z,6.10
2022-11-25T01:21:43.536Z,5.85
2022-11-25T01:24:16.095Z,5.63
2022-11-25T01:26:44.534Z,5.70
2022-11-25T01:29:16.896Z,5.75
2022-11-25T01:31:45.124Z,5.85
2022-11-25T01:34:20.659Z,6.18
2022-11-25T01:36:48.227Z,6.85
2022-11-25T01:39:21.129Z,5.82
2022-11-25T01:41:49.018Z,9.05
2022-11-25T01:44:17.295Z,6.28
2022-11-25T01:46:47.277Z,5.60
2022-11-25T01:49:24.308Z,7.53
2022-11-25T01:52:01.611Z,6.40
2022-11-25T01:54:33.458Z,7.85
2022-11-25T01:57:08.893Z,6.78
2022-11-25T01:59:42.845Z,5.45
2022-11-25T02:02:10.424Z,6.13
2022-11-25T02:04:39.537Z,6.00
2022-11-25T02:07:41.328Z,7.38
2022-11-25T02:10:14.531Z,6.00
2022-11-25T02:12:45.708Z,5.80
2022-11-25T02:15:13.869Z,6.35
2022-11-25T02:17:42.245Z,6.63
2022-11-25T02:20:20.685Z,6.13
2022-11-25T02:23:19.674Z,5.85
2022-11-25T02:25:47.638Z,5.07
2022-11-25T02:28:37.495Z,5.38
2022-11-25T02:31:07.821Z,5.65
2022-11-25T02:33:36.597Z,6.65
2022-11-25T02:36:07.157Z,7.05
2022-11-25T02:38:47.818Z,7.32
2022-11-25T02:41:19.804Z,5.47
2022-11-25T02:43:51.612Z,5.60
2022-11-25T02:46:23.652Z,6.63
2022-11-25T02:49:09.347Z,6.63
2022-11-25T02:51:38.262Z,7.15
2022-11-25T02:54:05.510Z,5.35
2022-11-25T02:56:35.195Z,5.50
2022-11-25T02:59:02.874Z,6.60
2022-11-25T03:01:35.366Z,5.35
2022-11-25T03:04:05.914Z,4.88
2022-11-25T03:06:33.380Z,11.07
2022-11-25T03:09:00.523Z,5.03
2022-11-25T03:11:46.283Z,4.80
2022-11-25T03:14:14.886Z,4.65
2022-11-25T03:16:43.087Z,4.88
2022-11-25T03:19:10.129Z,7.70
2022-11-25T03:21:36.977Z,6.43
2022-11-25T03:24:04.058Z,5.57
2022-11-25T03:26:31.410Z,7.90
2022-11-25T03:28:58.407Z,6.35
2022-11-25T03:31:25.387Z,7.90
2022-11-25T03:33:52.481Z,5.80
2022-11-25T03:36:21.240Z,6.55
2022-11-25T03:38:48.389Z,12.38
2022-11-25T03:41:15.280Z,5.78
2022-11-25T03:43:42.393Z,6.50
2022-11-25T03:46:09.356Z,6.50
2022-11-25T03:48:36.638Z,10.18
2022-11-25T03:51:03.828Z,6.97
2022-11-25T03:53:30.762Z,8.00
2022-11-25T03:56:00.135Z,8.85
2022-11-25T03:58:27.088Z,9.32
2022-11-25T04:00:55.293Z,6.43
2022-11-25T04:03:22.496Z,7.78
2022-11-25T04:05:49.379Z,6.40
2022-11-25T04:08:16.713Z,5.88
2022-11-25T04:10:45.245Z,8.82
2022-11-25T04:13:12.580Z,7.50
2022-11-25T04:15:49.842Z,5.47
2022-11-25T04:18:19.738Z,5.45
2022-11-25T04:20:50.148Z,5.93
2022-11-25T04:23:17.155Z,5.82
2022-11-25T04:25:54.877Z,6.53
2022-11-25T04:28:31.123Z,7.13
2022-11-25T04:30:58.396Z,5.75
2022-11-25T04:33:25.546Z,12.63
2022-11-25T04:35:53.200Z,7.82
2022-11-25T04:38:20.883Z,6.95
2022-11-25T04:40:48.719Z,5.93
2022-11-25T04:43:21.979Z,6.03
2022-11-25T04:46:15.953Z,8.32
2022-11-25T04:48:46.709Z,5.22
2022-11-25T04:51:15.372Z,6.25
2022-11-25T04:53:44.103Z,6.55
2022-11-25T04:56:18.731Z,8.02
2022-11-25T04:59:05.400Z,5.15
2022-11-25T05:01:33.987Z,6.28
2022-11-25T05:04:10.547Z,6.10
2022-11-25T05:06:37.753Z,8.00
2022-11-25T05:09:05.816Z,5.63
2022-11-25T05:11:38.033Z,5.45
2022-11-25T05:14:05.536Z,5.53
2022-11-25T05:16:32.915Z,8.00
2022-11-25T05:19:00.520Z,6.55
2022-11-25T05:21:27.605Z,9.73
2022-11-25T05:23:56.079Z,10.25
2022-11-25T05:26:24.447Z,8.98
2022-11-25T05:28:53.905Z,7.57
2022-11-25T05:31:21.058Z,11.32
2022-11-25T05:33:48.846Z,8.85
2022-11-25T05:36:16.980Z,8.75
2022-11-25T05:38:46.395Z,10.18
2022-11-25T05:41:18.811Z,8.05
2022-11-25T05:43:47.332Z,6.90
2022-11-25T05:46:14.945Z,9.55
2022-11-25T05:48:53.397Z,10.65
2022-11-25T05:51:20.889Z,12.38
2022-11-25T05:53:48.225Z,11.45
2022-11-25T05:56:15.360Z,14.18
2022-11-25T05:59:05.834Z,11.27
2022-11-25T06:01:57.590Z,10.90
2022-11-25T06:04:24.921Z,11.75
2022-11-25T06:06:51.913Z,12.90
2022-11-25T06:09:18.938Z,13.20
2022-11-25T06:11:45.860Z,10.65
2022-11-25T06:14:12.788Z,13.90
2022-11-25T06:16:41.293Z,17.35
2022-11-25T06:19:22.951Z,14.13
2022-11-25T06:21:49.847Z,12.25
2022-11-25T06:24:16.936Z,13.50
2022-11-25T06:26:46.048Z,14.52
2022-11-25T06:29:12.923Z,16.95
2022-11-25T06:31:43.105Z,15.48
2022-11-25T06:34:27.918Z,15.53
2022-11-25T06:36:55.172Z,14.88
2022-11-25T06:39:22.067Z,14.95
2022-11-25T06:41:48.949Z,15.93
2022-11-25T06:44:15.951Z,19.65
2022-11-25T06:46:42.945Z,22.30
2022-11-25T06:49:09.955Z,20.15
2022-11-25T06:51:36.825Z,19.13
2022-11-25T06:54:03.896Z,17.27
2022-11-25T06:56:30.856Z,18.63
2022-11-25T06:58:57.797Z,21.92
2022-11-25T07:01:29.721Z,17.35
2022-11-25T07:04:03.429Z,23.27
2022-11-25T07:06:32.041Z,20.80
2022-11-25T07:08:59.357Z,16.15
2022-11-25T07:11:29.396Z,17.70
2022-11-25T07:13:59.129Z,16.02
2022-11-25T07:16:27.397Z,17.35
2022-11-25T07:18:54.795Z,18.00
2022-11-25T07:21:25.484Z,17.58
2022-11-25T07:23:53.116Z,17.90
2022-11-25T07:26:25.357Z,15.20
2022-11-25T07:28:54.005Z,15.73
2022-11-25T07:31:31.750Z,15.20
2022-11-25T07:34:12.387Z,14.15
2022-11-25T07:36:39.632Z,15.02
2022-11-25T07:39:09.511Z,23.23
2022-11-25T07:41:36.771Z,19.73
2022-11-25T07:44:06.102Z,19.25
2022-11-25T07:46:47.455Z,18.13
2022-11-25T07:49:21.026Z,18.73
2022-11-25T07:51:56.800Z,13.70
2022-11-25T07:54:24.491Z,19.70
2022-11-25T07:56:51.951Z,19.55
2022-11-25T07:59:22.108Z,22.83
2022-11-25T08:01:54.091Z,14.07
2022-11-25T08:04:21.719Z,16.45
2022-11-25T08:06:51.092Z,13.00
2022-11-25T08:09:21.605Z,15.77
2022-11-25T08:11:49.520Z,17.00
2022-11-25T08:14:17.630Z,14.77
2022-11-25T08:16:44.910Z,14.60
2022-11-25T08:19:14.545Z,17.27
2022-11-25T08:21:42.621Z,11.48
2022-11-25T08:24:16.833Z,19.10
2022-11-25T08:26:44.197Z,11.70
2022-11-25T08:29:15.423Z,15.63
2022-11-25T08:31:43.412Z,12.48
2022-11-25T08:34:18.522Z,15.73
2022-11-25T08:36:48.654Z,18.77
2022-11-25T08:39:44.143Z,17.38
2022-11-25T08:42:06.109Z,20.80
2022-11-25T08:44:33.112Z,19.10
2022-11-25T08:47:00.167Z,17.33
2022-11-25T08:49:29.409Z,18.17
2022-11-25T08:51:56.373Z,17.83
2022-11-25T08:54:23.277Z,19.08
2022-11-25T08:56:50.248Z,15.18
2022-11-25T08:59:17.145Z,17.23
2022-11-25T09:01:44.383Z,19.45
2022-11-25T09:04:11.548Z,17.25
2022-11-25T09:06:39.218Z,16.38
2022-11-25T09:09:06.908Z,17.08
2022-11-25T09:11:33.943Z,14.73
2022-11-25T09:14:00.923Z,12.02
2022-11-25T09:16:28.444Z,12.70
2022-11-25T09:18:56.388Z,13.25
2022-11-25T09:21:25.044Z,16.75
2022-11-25T09:23:54.110Z,13.48
2022-11-25T09:26:22.574Z,24.70
2022-11-25T09:28:49.739Z,15.02
2022-11-25T09:31:17.470Z,12.48
2022-11-25T09:33:45.156Z,14.60
2022-11-25T09:36:13.816Z,10.98
2022-11-25T09:38:44.212Z,11.35
2022-11-25T09:41:39.750Z,11.52
2022-11-25T09:44:41.594Z,14.18
2022-11-25T09:47:32.758Z,12.73
2022-11-25T09:49:59.587Z,16.00
2022-11-25T09:52:50.883Z,18.20
2022-11-25T09:55:22.260Z,22.25
2022-11-25T09:58:20.640Z,17.02
2022-11-25T10:00:50.245Z,15.40
2022-11-25T10:03:22.850Z,19.70
2022-11-25T10:05:53.841Z,27.25
2022-11-25T10:08:25.538Z,14.05
2022-11-25T10:11:17.115Z,20.98
2022-11-25T10:14:04.358Z,18.05
2022-11-25T10:16:51.146Z,16.85
2022-11-25T10:19:47.449Z,15.10
2022-11-25T10:22:22.875Z,21.88
2022-11-25T10:27:36.376Z,18.40
2022-11-25T10:30:14.568Z,12.17
2022-11-25T10:32:46.730Z,14.93
2022-11-25T10:35:34.116Z,12.73
2022-11-25T10:38:04.062Z,16.02
2022-11-25T10:40:31.267Z,16.88
2022-11-25T10:42:59.173Z,15.75
2022-11-25T10:45:37.150Z,11.07
2022-11-25T10:48:41.321Z,12.32
2022-11-25T10:51:38.436Z,13.38
2022-11-25T10:54:12.743Z,11.45
2022-11-25T10:56:53.995Z,16.85
2022-11-25T10:59:34.810Z,9.80
2022-11-25T11:02:13.627Z,10.75
2022-11-25T11:05:09.743Z,9.25
2022-11-25T11:07:39.589Z,9.38
2022-11-25T11:10:23.937Z,9.88
2022-11-25T11:12:59.139Z,8.32
2022-11-25T11:15:42.467Z,9.50
2022-11-25T11:18:24.118Z,9.07
2022-11-25T11:20:54.316Z,9.32
2022-11-25T11:23:21.345Z,11.10
2022-11-25T11:26:20.089Z,9.50
2022-11-25T11:28:47.554Z,10.48
2022-11-25T11:31:23.200Z,9.38
2022-11-25T11:33:59.285Z,10.23
2022-11-25T11:36:50.762Z,11.52
2022-11-25T11:39:38.298Z,10.85
2022-11-25T11:42:26.942Z,13.13
2022-11-25T11:45:24.783Z,10.65
2022-11-25T11:48:21.347Z,13.90
2022-11-25T11:50:57.735Z,11.75
2022-11-25T11:53:36.673Z,16.33
2022-11-25T11:56:36.261Z,14.27
2022-11-25T11:59:30.802Z,12.73
2022-11-25T12:02:15.787Z,10.65
2022-11-25T12:05:10.837Z,14.03
2022-11-25T12:07:52.864Z,14.02
2022-11-25T12:10:24.210Z,16.23
2022-11-25T12:12:57.002Z,15.52
2022-11-25T12:15:49.525Z,16.50
2022-11-25T12:18:44.776Z,14.32
2022-11-25T12:21:45.581Z,17.27
2022-11-25T12:24:21.185Z,19.65
2022-11-25T12:26:57.061Z,15.60
2022-11-25T12:29:42.767Z,18.80
2022-11-25T12:34:58.716Z,21.40
2022-11-25T12:37:51.047Z,24.65
2022-11-25T12:40:20.395Z,21.63
2022-11-25T12:42:49.597Z,17.08
2022-11-25T12:45:22.081Z,24.13
2022-11-25T12:47:49.012Z,18.48
2022-11-25T12:50:20.948Z,18.13
2022-11-25T12:53:15.992Z,22.10
2022-11-25T12:55:42.977Z,26.27
2022-11-25T12:58:33.100Z,21.10
2022-11-25T13:01:12.100Z,30.92
2022-11-25T13:03:51.007Z,25.25
2022-11-25T13:06:44.145Z,22.42
2022-11-25T13:09:14.007Z,24.63
2022-11-25T13:12:04.919Z,23.80
2022-11-25T13:15:04.408Z,22.90
2022-11-25T13:17:38.008Z,25.67
2022-11-25T13:20:29.580Z,21.48
2022-11-25T13:23:05.637Z,26.35
2022-11-25T13:25:33.887Z,25.08
2022-11-25T13:28:03.363Z,23.58
2022-11-25T13:30:32.979Z,26.85
2022-11-25T13:33:12.010Z,25.20
2022-11-25T13:35:50.445Z,25.23
2022-11-25T13:38:29.367Z,17.27
2022-11-25T13:41:00.583Z,22.33
2022-11-25T13:43:28.037Z,26.42
2022-11-25T13:45:56.196Z,22.67
2022-11-25T13:48:31.266Z,23.42
2022-11-25T13:51:16.888Z,25.40
2022-11-25T13:54:01.326Z,24.30
2022-11-25T13:56:36.801Z,29.60
2022-11-25T13:59:14.062Z,23.63
2022-11-25T14:01:52.079Z,29.08
2022-11-25T14:04:44.078Z,25.60
2022-11-25T14:07:30.313Z,24.58
2022-11-25T14:10:16.341Z,23.83
2022-11-25T14:13:18.055Z,24.13
2022-11-25T14:16:07.201Z,26.20
2022-11-25T14:21:50.759Z,27.50
2022-11-25T14:24:41.623Z,29.85
2022-11-25T14:27:22.565Z,23.40
2022-11-25T14:30:06.535Z,25.88
2022-11-25T14:32:48.593Z,31.67
2022-11-25T14:35:20.780Z,26.83
2022-11-25T14:37:52.690Z,30.30
2022-11-25T14:40:30.626Z,28.98
2022-11-25T14:43:07.969Z,32.63
2022-11-25T14:45:35.851Z,25.55
2022-11-25T14:48:24.343Z,28.70
2022-11-25T14:51:00.318Z,26.80
2022-11-25T14:53:28.842Z,25.55
2022-11-25T14:56:00.160Z,24.25
2022-11-25T14:58:27.708Z,28.67
2022-11-25T15:00:57.794Z,25.98
2022-11-25T15:03:25.062Z,28.50
2022-11-25T15:05:57.677Z,29.90
2022-11-25T15:08:25.698Z,28.33
2022-11-25T15:10:59.104Z,35.92
2022-11-25T15:13:41.312Z,31.42
2022-11-25T15:16:11.813Z,31.08
2022-11-25T15:18:43.898Z,31.25
2022-11-25T15:21:14.906Z,38.17
2022-11-25T15:23:41.856Z,32.70
2022-11-25T15:26:21.217Z,28.83
2022-11-25T15:29:04.847Z,35.40
2022-11-25T15:31:34.771Z,28.50
2022-11-25T15:34:04.923Z,29.60
2022-11-25T15:36:31.985Z,30.40
2022-11-25T15:39:13.940Z,29.33
2022-11-25T15:41:43.386Z,33.35
2022-11-25T15:44:20.007Z,31.33
2022-11-25T15:46:55.925Z,35.55
2022-11-25T15:49:23.190Z,30.48
2022-11-25T15:51:55.369Z,35.25
2022-11-25T15:54:32.178Z,27.98
2022-11-25T15:57:14.718Z,30.10
2022-11-25T16:00:02.325Z,34.28
2022-11-25T16:02:42.297Z,30.00
2022-11-25T16:05:15.203Z,33.28
2022-11-25T16:07:51.523Z,32.67
2022-11-25T16:10:26.895Z,31.17
2022-11-25T16:13:30.085Z,32.90
2022-11-25T16:16:12.109Z,28.48
2022-11-25T16:18:57.155Z,28.30
2022-11-25T16:21:38.904Z,30.70
2022-11-25T16:24:05.811Z,30.40
2022-11-25T16:26:38.674Z,30.25
2022-11-25T16:29:17.602Z,28.88
2022-11-25T16:31:44.671Z,26.83
2022-11-25T16:34:22.040Z,29.02
2022-11-25T16:36:48.960Z,30.63
2022-11-25T16:39:16.079Z,25.02
2022-11-25T16:41:46.332Z,30.42
2022-11-25T16:44:19.371Z,30.90
2022-11-25T16:46:46.376Z,31.15
2022-11-25T16:49:14.658Z,24.55
2022-11-25T16:51:42.024Z,31.50
2022-11-25T16:54:08.977Z,27.63
2022-11-25T16:56:41.965Z,23.98
2022-11-25T16:59:22.735Z,27.23
2022-11-25T17:01:49.784Z,26.65
2022-11-25T17:04:17.702Z,22.90
2022-11-25T17:06:50.545Z,22.85
2022-11-25T17:09:21.060Z,24.35
2022-11-25T17:11:54.783Z,25.23
2022-11-25T17:14:28.319Z,27.42
2022-11-25T17:16:55.483Z,25.73
2022-11-25T17:19:22.560Z,21.90
2022-11-25T17:21:49.526Z,22.40
2022-11-25T17:24:22.588Z,19.90
2022-11-25T17:27:00.690Z,28.02
2022-11-25T17:29:48.210Z,20.30
2022-11-25T17:32:16.412Z,20.55
2022-11-25T17:34:43.426Z,21.35
2022-11-25T17:37:18.459Z,20.67
2022-11-25T17:39:45.486Z,18.35
2022-11-25T17:42:17.505Z,18.48
2022-11-25T17:44:49.844Z,21.65
2022-11-25T17:49:46.477Z,17.13
2022-11-25T17:52:13.316Z,18.85
2022-11-25T17:54:40.522Z,21.98
2022-11-25T17:57:11.318Z,18.17
2022-11-25T17:59:38.537Z,15.77
2022-11-25T18:02:18.516Z,18.67
2022-11-25T18:04:45.730Z,13.40
2022-11-25T18:07:12.780Z,19.63
2022-11-25T18:09:40.339Z,17.25
2022-11-25T18:12:10.955Z,16.13
2022-11-25T18:14:40.921Z,16.65
2022-11-25T18:17:11.619Z,18.15
2022-11-25T18:19:38.536Z,18.27
2022-11-25T18:22:14.479Z,16.10
2022-11-25T18:24:42.015Z,21.60
2022-11-25T18:27:21.822Z,20.90
2022-11-25T18:29:49.094Z,25.35
2022-11-25T18:32:16.074Z,25.63
2022-11-25T18:34:43.036Z,19.10
2022-11-25T18:37:12.064Z,16.08
2022-11-25T18:39:39.294Z,23.73
2022-11-25T18:42:07.132Z,23.92
2022-11-25T18:44:43.728Z,21.98
2022-11-25T18:47:13.868Z,25.65
2022-11-25T18:49:40.823Z,23.95
2022-11-25T18:52:07.817Z,22.05
2022-11-25T18:54:35.059Z,21.10
2022-11-25T18:57:02.364Z,24.38
2022-11-25T18:59:34.925Z,26.13
2022-11-25T19:02:02.169Z,26.38
2022-11-25T19:04:29.133Z,27.52
2022-11-25T19:06:56.033Z,31.23
2022-11-25T19:09:22.924Z,28.92
2022-11-25T19:11:55.347Z,32.78
2022-11-25T19:14:36.051Z,33.88
2022-11-25T19:17:07.649Z,36.50
2022-11-25T19:19:36.590Z,34.92
2022-11-25T19:22:10.113Z,35.00
2022-11-25T19:24:37.157Z,33.08
2022-11-25T19:27:04.393Z,34.70
2022-11-25T19:29:41.629Z,32.13
2022-11-25T19:32:22.007Z,37.38
2022-11-25T19:34:53.501Z,32.22
2022-11-25T19:37:22.026Z,35.22
2022-11-25T19:39:53.194Z,37.95
2022-11-25T19:42:20.439Z,40.63
2022-11-25T19:44:47.609Z,39.13
2022-11-25T19:47:24.111Z,40.75
2022-11-25T19:49:54.693Z,37.72
2022-11-25T19:52:24.193Z,36.40
2022-11-25T19:54:51.123Z,43.00
2022-11-25T19:57:21.230Z,41.33
2022-11-25T19:59:48.663Z,37.20
2022-11-25T20:02:19.730Z,38.25
2022-11-25T20:04:49.101Z,42.22
2022-11-25T20:07:19.506Z,41.70
2022-11-25T20:09:47.855Z,38.88
2022-11-25T20:12:30.845Z,40.35
2022-11-25T20:14:57.715Z,33.42
2022-11-25T20:17:34.221Z,37.33
2022-11-25T20:20:25.800Z,35.70
2022-11-25T20:23:11.055Z,33.17
2022-11-25T20:25:44.510Z,36.75
2022-11-25T20:28:23.558Z,35.38
2022-11-25T20:30:52.380Z,33.33
2022-11-25T20:33:24.045Z,35.03
2022-11-25T20:35:59.768Z,34.72
2022-11-25T20:38:30.136Z,31.60
2022-11-25T20:40:58.952Z,34.45
2022-11-25T20:43:39.165Z,30.20
2022-11-25T20:46:12.593Z,32.63
2022-11-25T20:48:39.608Z,33.33
2022-11-25T20:51:12.990Z,34.17
2022-11-25T20:53:43.666Z,36.10
2022-11-25T20:56:14.827Z,36.03
2022-11-25T20:58:42.051Z,31.40
2022-11-25T21:01:09.636Z,30.08
2022-11-25T21:03:36.591Z,26.58
2022-11-25T21:06:16.995Z,28.30
2022-11-25T21:08:47.711Z,25.25
2022-11-25T21:11:15.253Z,27.38
2022-11-25T21:13:42.621Z,26.85
2022-11-25T21:16:09.533Z,28.55
2022-11-25T21:18:36.481Z,29.73
2022-11-25T21:21:04.016Z,23.75
2022-11-25T21:23:35.304Z,27.35
2022-11-25T21:26:06.336Z,27.92
2022-11-25T21:28:37.686Z,28.58
2022-11-25T21:31:09.829Z,30.65
2022-11-25T21:33:38.040Z,29.70
2022-11-25T21:36:05.131Z,24.65
2022-11-25T21:38:32.056Z,27.30
2022-11-25T21:40:58.919Z,25.83
2022-11-25T21:43:34.066Z,30.52
2022-11-25T21:46:07.389Z,25.95
2022-11-25T21:48:34.379Z,24.13
2022-11-25T21:51:01.391Z,24.98
2022-11-25T21:53:30.098Z,29.98
2022-11-25T21:56:01.485Z,21.63
2022-11-25T21:58:30.313Z,27.08
2022-11-25T22:01:00.345Z,24.90
2022-11-25T22:03:31.069Z,20.35
2022-11-25T22:05:58.152Z,23.85
2022-11-25T22:08:25.077Z,23.05
2022-11-25T22:10:54.790Z,25.85
2022-11-25T22:13:27.570Z,26.33
2022-11-25T22:15:57.803Z,24.90
2022-11-25T22:18:36.132Z,22.13
2022-11-25T22:21:03.673Z,23.10
2022-11-25T22:23:30.524Z,20.17
2022-11-25T22:25:57.680Z,19.73
2022-11-25T22:28:27.838Z,21.83
2022-11-25T22:30:57.586Z,18.08
2022-11-25T22:33:30.686Z,19.42
2022-11-25T22:35:57.902Z,18.92
2022-11-25T22:38:24.959Z,18.58
2022-11-25T22:40:56.653Z,18.73
2022-11-25T22:43:28.472Z,19.00
2022-11-25T22:45:56.105Z,18.70
2022-11-25T22:48:35.240Z,20.17
2022-11-25T22:51:02.464Z,16.67
2022-11-25T22:53:29.695Z,15.45
2022-11-25T22:55:56.985Z,19.08
2022-11-25T22:58:25.770Z,16.83
2022-11-25T23:00:52.806Z,18.88
2022-11-25T23:03:33.452Z,16.52
2022-11-25T23:06:02.169Z,16.65
2022-11-25T23:08:31.756Z,15.00
2022-11-25T23:10:59.155Z,15.88
2022-11-25T23:13:26.059Z,14.57
2022-11-25T23:15:55.831Z,12.93
2022-11-25T23:18:39.030Z,14.35
2022-11-25T23:21:14.427Z,11.32
2022-11-25T23:26:10.737Z,17.80
2022-11-25T23:28:37.700Z,14.75
2022-11-25T23:31:05.758Z,15.65
2022-11-25T23:33:55.866Z,18.38
2022-11-25T23:36:29.981Z,18.40
2022-11-25T23:39:02.523Z,18.38
2022-11-25T23:41:32.031Z,16.02
2022-11-25T23:44:06.225Z,16.52
2022-11-25T23:46:36.543Z,16.95
2022-11-25T23:49:06.722Z,14.02
2022-11-25T23:51:33.940Z,12.10
2022-11-25T23:54:00.874Z,11.70
2022-11-25T23:56:28.645Z,14.18
2022-11-25T23:58:55.534Z,12.77
